createdAt,value
2022-11-27T00:00:30.547Z,6.85
2022-11-27T00:02:57.104Z,6.73
2022-11-27T00:05:23.585Z,6.75
2022-11-27T00:07:50.118Z,6.70
2022-11-27T00:10:16.636Z,6.74
2022-11-27T00:12:43.032Z,6.72
2022-11-27T00:15:13.395Z,6.77
2022-11-27T00:17:42.558Z,6.82
2022-11-27T00:20:09.213Z,6.76
2022-11-27T00:22:35.633Z,6.83
2022-11-27T00:25:02.033Z,6.71
2022-11-27T00:27:28.425Z,6.70
2022-11-27T00:29:54.829Z,6.71
2022-11-27T00:32:21.239Z,6.72
2022-11-27T00:34:47.620Z,6.61
2022-11-27T00:37:14.830Z,6.64
2022-11-27T00:39:41.209Z,6.65
2022-11-27T00:42:07.603Z,6.70
2022-11-27T00:44:34.843Z,6.73
2022-11-27T00:47:01.342Z,6.71
2022-11-27T00:49:28.001Z,6.80
2022-11-27T00:51:54.676Z,6.65
2022-11-27T00:54:22.864Z,6.69
2022-11-27T00:56:49.325Z,6.67
2022-11-27T00:59:15.791Z,6.65
2022-11-27T01:01:43.939Z,6.68
2022-11-27T01:04:15.540Z,6.66
2022-11-27T01:06:42.877Z,6.72
2022-11-27T01:09:11.290Z,6.90
2022-11-27T01:11:37.802Z,6.79
2022-11-27T01:14:08.243Z,6.83
2022-11-27T01:16:35.155Z,6.76
2022-11-27T01:19:02.397Z,6.73
2022-11-27T01:21:32.207Z,6.69
2022-11-27T01:23:59.417Z,6.79
2022-11-27T01:26:26.552Z,6.74
2022-11-27T01:28:55.244Z,6.67
2022-11-27T01:31:24.663Z,6.68
2022-11-27T01:33:56.667Z,6.61
2022-11-27T01:36:23.501Z,6.64
2022-11-27T01:38:50.328Z,6.69
2022-11-27T01:41:23.002Z,6.72
2022-11-27T01:43:51.255Z,6.74
2022-11-27T01:46:29.919Z,6.70
2022-11-27T01:49:04.645Z,6.78
2022-11-27T01:51:31.699Z,6.85
2022-11-27T01:53:58.617Z,6.71
2022-11-27T01:56:27.892Z,6.65
2022-11-27T01:58:56.938Z,6.68
2022-11-27T02:01:26.287Z,6.67
2022-11-27T02:03:55.139Z,6.65
2022-11-27T02:06:21.594Z,6.58
2022-11-27T02:08:48.071Z,6.64
2022-11-27T02:11:36.098Z,6.63
2022-11-27T02:14:21.162Z,6.61
2022-11-27T02:16:58.466Z,6.64
2022-11-27T02:19:48.257Z,6.63
2022-11-27T02:22:35.241Z,6.65
2022-11-27T02:25:26.811Z,6.67
2022-11-27T02:28:12.787Z,6.75
2022-11-27T02:30:48.744Z,6.63
2022-11-27T02:33:20.092Z,6.63
2022-11-27T02:36:00.559Z,6.63
2022-11-27T02:38:37.618Z,6.54
2022-11-27T02:41:16.030Z,6.59
2022-11-27T02:43:47.611Z,6.50
2022-11-27T02:46:15.277Z,6.57
2022-11-27T02:48:56.842Z,6.63
2022-11-27T02:51:27.687Z,6.63
2022-11-27T02:53:58.913Z,6.64
2022-11-27T02:56:29.583Z,6.54
2022-11-27T02:58:59.662Z,6.48
2022-11-27T03:01:32.279Z,6.55
2022-11-27T03:04:00.373Z,6.63
2022-11-27T03:06:44.714Z,6.59
2022-11-27T03:09:18.781Z,6.71
2022-11-27T03:11:46.006Z,6.56
2022-11-27T03:14:15.398Z,6.69
2022-11-27T03:17:00.186Z,6.78
2022-11-27T03:19:35.633Z,6.71
2022-11-27T03:22:03.305Z,6.61
2022-11-27T03:24:33.003Z,6.58
2022-11-27T03:27:00.546Z,6.48
2022-11-27T03:29:41.719Z,6.35
2022-11-27T03:32:08.781Z,6.31
2022-11-27T03:34:35.572Z,6.47
2022-11-27T03:37:02.463Z,6.52
2022-11-27T03:39:30.239Z,6.32
2022-11-27T03:42:18.064Z,6.45
2022-11-27T03:44:58.434Z,6.23
2022-11-27T03:47:43.320Z,6.11
2022-11-27T03:50:21.689Z,5.93
2022-11-27T03:52:54.077Z,5.73
2022-11-27T03:55:29.340Z,5.59
2022-11-27T03:58:22.020Z,5.49
2022-11-27T04:00:51.051Z,5.39
2022-11-27T04:03:23.896Z,5.32
2022-11-27T04:05:50.430Z,5.24
2022-11-27T04:08:16.918Z,5.21
2022-11-27T04:10:43.360Z,5.12
2022-11-27T04:13:09.769Z,5.06
2022-11-27T04:15:36.185Z,4.93
2022-11-27T04:18:02.662Z,4.98
2022-11-27T04:20:29.483Z,4.80
2022-11-27T04:22:56.096Z,4.78
2022-11-27T04:25:22.878Z,4.73
2022-11-27T04:27:49.962Z,4.71
2022-11-27T04:30:17.188Z,4.65
2022-11-27T04:32:44.050Z,4.58
2022-11-27T04:35:10.571Z,4.53
2022-11-27T04:37:37.771Z,4.53
2022-11-27T04:40:05.776Z,4.45
2022-11-27T04:42:32.282Z,4.42
2022-11-27T04:44:58.682Z,4.40
2022-11-27T04:47:25.125Z,4.36
2022-11-27T04:49:51.563Z,4.29
2022-11-27T04:52:17.991Z,4.32
2022-11-27T04:54:44.429Z,4.21
2022-11-27T04:57:10.813Z,4.17
2022-11-27T04:59:38.003Z,4.10
2022-11-27T05:02:04.503Z,4.14
2022-11-27T05:04:30.949Z,4.16
2022-11-27T05:06:57.348Z,4.24
2022-11-27T05:09:23.917Z,4.15
2022-11-27T05:11:50.528Z,4.12
2022-11-27T05:14:17.971Z,3.98
2022-11-27T05:16:56.150Z,4.07
2022-11-27T05:19:23.203Z,4.12
2022-11-27T05:21:50.737Z,4.00
2022-11-27T05:24:18.856Z,4.04
2022-11-27T05:26:45.802Z,3.97
2022-11-27T05:29:13.642Z,4.06
2022-11-27T05:31:40.588Z,3.94
2022-11-27T05:34:07.747Z,3.89
2022-11-27T05:36:36.999Z,3.96
2022-11-27T05:39:06.425Z,3.92
2022-11-27T05:41:33.766Z,3.90
2022-11-27T05:44:00.262Z,3.75
2022-11-27T05:46:26.814Z,3.76
2022-11-27T05:48:53.260Z,3.83
2022-11-27T05:51:19.738Z,3.82
2022-11-27T05:53:46.261Z,3.81
2022-11-27T05:56:16.455Z,3.81
2022-11-27T05:58:45.243Z,3.70
2022-11-27T06:01:13.213Z,3.79
2022-11-27T06:03:39.758Z,3.68
2022-11-27T06:06:08.383Z,3.67
2022-11-27T06:08:37.510Z,3.73
2022-11-27T06:11:15.469Z,3.64
2022-11-27T06:13:42.563Z,3.66
2022-11-27T06:16:12.825Z,3.56
2022-11-27T06:18:39.359Z,3.67
2022-11-27T06:21:08.097Z,3.76
2022-11-27T06:23:34.887Z,3.72
2022-11-27T06:26:13.483Z,3.68
2022-11-27T06:28:40.872Z,3.60
2022-11-27T06:31:17.595Z,3.57
2022-11-27T06:33:45.762Z,3.52
2022-11-27T06:36:12.204Z,3.59
2022-11-27T06:38:38.909Z,3.53
2022-11-27T06:41:07.731Z,3.42
2022-11-27T06:43:34.815Z,3.38
2022-11-27T06:46:02.458Z,3.36
2022-11-27T06:48:29.317Z,3.38
2022-11-27T06:51:02.113Z,3.30
2022-11-27T06:53:34.023Z,3.31
2022-11-27T06:56:03.387Z,3.44
2022-11-27T06:58:31.354Z,3.39
2022-11-27T07:01:03.566Z,3.37
2022-11-27T07:03:30.301Z,3.38
2022-11-27T07:06:00.442Z,3.31
2022-11-27T07:08:27.510Z,3.26
2022-11-27T07:10:53.930Z,3.17
2022-11-27T07:13:20.333Z,3.25
2022-11-27T07:15:46.772Z,3.13
2022-11-27T07:18:13.203Z,3.06
2022-11-27T07:20:39.619Z,3.04
2022-11-27T07:23:06.049Z,3.08
2022-11-27T07:25:32.487Z,3.21
2022-11-27T07:27:58.969Z,3.25
2022-11-27T07:30:25.419Z,3.29
2022-11-27T07:32:51.823Z,3.13
2022-11-27T07:35:18.525Z,3.11
2022-11-27T07:37:44.965Z,3.20
2022-11-27T07:40:13.044Z,3.14
2022-11-27T07:42:41.317Z,3.26
2022-11-27T07:45:08.934Z,3.30
2022-11-27T07:47:35.506Z,3.20
2022-11-27T07:50:02.039Z,3.21
2022-11-27T07:52:28.562Z,3.23
2022-11-27T07:54:55.020Z,3.26
2022-11-27T07:57:21.576Z,3.42
2022-11-27T07:59:48.125Z,3.42
2022-11-27T08:02:15.214Z,3.35
2022-11-27T08:04:42.058Z,3.33
2022-11-27T08:07:08.761Z,3.46
2022-11-27T08:09:35.250Z,3.54
2022-11-27T08:12:01.684Z,3.32
2022-11-27T08:14:28.185Z,3.46
2022-11-27T08:16:54.675Z,3.47
2022-11-27T08:19:21.330Z,3.78
2022-11-27T08:21:47.794Z,3.41
2022-11-27T08:24:14.228Z,3.54
2022-11-27T08:26:40.654Z,3.66
2022-11-27T08:29:07.406Z,3.72
2022-11-27T08:31:34.123Z,3.59
2022-11-27T08:34:00.743Z,3.82
2022-11-27T08:36:27.888Z,3.59
2022-11-27T08:38:55.606Z,3.83
2022-11-27T08:41:22.177Z,3.89
2022-11-27T08:43:48.696Z,4.37
2022-11-27T08:46:15.242Z,4.48
2022-11-27T08:48:41.995Z,4.32
2022-11-27T08:51:11.396Z,4.58
2022-11-27T08:53:38.107Z,4.70
2022-11-27T08:56:08.464Z,4.32
2022-11-27T08:58:34.986Z,4.28
2022-11-27T09:01:08.415Z,4.39
2022-11-27T09:03:34.908Z,4.38
2022-11-27T09:06:01.420Z,4.35
2022-11-27T09:08:27.957Z,4.31
2022-11-27T09:10:54.347Z,4.47
2022-11-27T09:13:20.781Z,4.35
2022-11-27T09:15:47.346Z,4.33
2022-11-27T09:18:13.745Z,4.33
2022-11-27T09:20:40.163Z,4.15
2022-11-27T09:23:11.463Z,4.15
2022-11-27T09:25:40.587Z,3.93
2022-11-27T09:28:07.060Z,3.82
2022-11-27T09:30:33.478Z,3.66
2022-11-27T09:33:02.063Z,3.64
2022-11-27T09:35:28.510Z,3.82
2022-11-27T09:37:54.957Z,3.83
2022-11-27T09:40:21.433Z,3.94
2022-11-27T09:42:58.752Z,4.01
2022-11-27T09:45:27.153Z,3.97
2022-11-27T09:47:59.576Z,3.87
2022-11-27T09:50:29.946Z,4.08
2022-11-27T09:53:05.550Z,4.33
2022-11-27T09:55:37.685Z,4.52
2022-11-27T09:58:22.269Z,4.39
2022-11-27T10:00:48.818Z,4.55
2022-11-27T10:03:18.605Z,4.38
2022-11-27T10:06:11.533Z,4.38
2022-11-27T10:09:08.357Z,4.51
2022-11-27T10:12:01.722Z,4.56
2022-11-27T10:14:37.221Z,4.62
2022-11-27T10:17:15.501Z,4.87
2022-11-27T10:20:00.233Z,4.69
2022-11-27T10:23:00.114Z,4.93
2022-11-27T10:25:40.920Z,5.35
2022-11-27T10:28:53.294Z,5.38
2022-11-27T10:31:32.524Z,5.22
2022-11-27T10:34:02.727Z,5.18
2022-11-27T10:36:37.098Z,4.88
2022-11-27T10:39:06.858Z,5.02
2022-11-27T10:41:49.181Z,5.17
2022-11-27T10:44:27.005Z,5.02
2022-11-27T10:47:01.184Z,5.10
2022-11-27T10:49:27.676Z,5.16
2022-11-27T10:51:54.130Z,5.17
2022-11-27T10:54:29.209Z,5.27
2022-11-27T10:57:07.608Z,5.49
2022-11-27T10:59:42.503Z,5.63
2022-11-27T11:02:32.980Z,5.39
2022-11-27T11:05:32.851Z,5.40
2022-11-27T11:08:07.289Z,5.36
2022-11-27T11:10:37.478Z,5.53
2022-11-27T11:13:14.401Z,5.14
2022-11-27T11:16:04.115Z,5.09
2022-11-27T11:18:42.276Z,4.87
2022-11-27T11:21:25.927Z,5.14
2022-11-27T11:24:01.100Z,5.07
2022-11-27T11:26:38.253Z,5.02
2022-11-27T11:29:16.402Z,5.33
2022-11-27T11:31:43.019Z,5.30
2022-11-27T11:34:27.990Z,5.27
2022-11-27T11:37:26.201Z,5.51
2022-11-27T11:39:59.233Z,5.51
2022-11-27T11:42:31.806Z,5.47
2022-11-27T11:45:13.293Z,5.59
2022-11-27T11:47:51.445Z,5.48
2022-11-27T11:50:26.970Z,5.52
2022-11-27T11:53:05.491Z,5.33
2022-11-27T11:55:42.304Z,5.36
2022-11-27T11:58:26.423Z,5.18
2022-11-27T12:01:30.161Z,5.01
2022-11-27T12:04:02.017Z,5.28
2022-11-27T12:06:46.608Z,5.19
2022-11-27T12:09:33.291Z,5.21
2022-11-27T12:12:16.858Z,5.26
2022-11-27T12:15:03.531Z,5.44
2022-11-27T12:17:39.146Z,5.43
2022-11-27T12:20:17.881Z,5.42
2022-11-27T12:23:19.360Z,5.45
2022-11-27T12:25:56.320Z,5.49
2022-11-27T12:28:39.422Z,5.55
2022-11-27T12:31:11.747Z,5.46
2022-11-27T12:34:10.274Z,5.28
2022-11-27T12:36:54.696Z,5.32
2022-11-27T12:39:28.021Z,5.59
2022-11-27T12:42:00.517Z,5.46
2022-11-27T12:44:47.271Z,5.57
2022-11-27T12:47:40.243Z,5.31
2022-11-27T12:50:23.233Z,5.32
2022-11-27T12:53:00.147Z,5.23
2022-11-27T12:55:31.086Z,5.23
2022-11-27T12:58:06.872Z,5.18
2022-11-27T13:00:40.595Z,5.47
2022-11-27T13:03:22.970Z,5.49
2022-11-27T13:05:55.559Z,5.36
2022-11-27T13:08:30.840Z,5.42
2022-11-27T13:11:05.386Z,5.41
2022-11-27T13:13:40.461Z,5.22
2022-11-27T13:16:31.179Z,5.07
2022-11-27T13:19:32.757Z,5.03
2022-11-27T13:22:03.258Z,5.17
2022-11-27T13:24:29.969Z,5.22
2022-11-27T13:27:06.434Z,5.01
2022-11-27T13:29:54.514Z,5.02
2022-11-27T13:32:24.989Z,5.04
2022-11-27T13:34:53.243Z,4.90
2022-11-27T13:37:28.721Z,4.99
2022-11-27T13:40:22.954Z,5.10
2022-11-27T13:42:55.133Z,5.08
2022-11-27T13:45:28.193Z,5.29
2022-11-27T13:47:57.205Z,5.21
2022-11-27T13:50:29.821Z,5.23
2022-11-27T13:53:05.726Z,5.24
2022-11-27T13:55:37.995Z,5.00
2022-11-27T13:58:05.923Z,4.92
2022-11-27T14:00:35.940Z,5.15
2022-11-27T14:03:03.285Z,5.28
2022-11-27T14:05:57.143Z,4.95
2022-11-27T14:08:31.721Z,5.17
2022-11-27T14:11:08.024Z,4.89
2022-11-27T14:13:36.319Z,5.04
2022-11-27T14:16:04.777Z,4.94
2022-11-27T14:18:31.593Z,5.24
2022-11-27T14:21:02.383Z,5.16
2022-11-27T14:23:35.506Z,4.94
2022-11-27T14:26:21.238Z,4.67
2022-11-27T14:28:59.462Z,4.84
2022-11-27T14:31:28.056Z,4.71
2022-11-27T14:36:41.022Z,4.76
2022-11-27T14:39:07.501Z,4.70
2022-11-27T14:41:33.966Z,4.68
2022-11-27T14:44:01.833Z,4.49
2022-11-27T14:46:28.607Z,4.43
2022-11-27T14:48:59.079Z,4.50
2022-11-27T14:51:29.168Z,4.44
2022-11-27T14:54:12.390Z,4.32
2022-11-27T14:56:44.328Z,4.36
2022-11-27T14:59:16.369Z,4.35
2022-11-27T15:01:43.075Z,4.52
2022-11-27T15:04:33.149Z,4.40
2022-11-27T15:06:59.899Z,4.35
2022-11-27T15:09:32.619Z,4.27
2022-11-27T15:12:19.436Z,4.43
2022-11-27T15:14:57.855Z,4.40
2022-11-27T15:17:29.814Z,4.38
2022-11-27T15:19:57.679Z,4.50
2022-11-27T15:22:24.428Z,4.50
2022-11-27T15:25:02.318Z,4.59
2022-11-27T15:27:33.072Z,4.55
2022-11-27T15:30:15.095Z,4.47
2022-11-27T15:32:51.314Z,4.42
2022-11-27T15:35:29.996Z,4.48
2022-11-27T15:37:57.503Z,4.70
2022-11-27T15:40:40.782Z,4.46
2022-11-27T15:43:15.474Z,4.42
2022-11-27T15:45:43.645Z,4.41
2022-11-27T15:48:18.574Z,4.68
2022-11-27T15:50:50.046Z,4.69
2022-11-27T15:53:18.209Z,4.51
2022-11-27T15:55:44.675Z,4.65
2022-11-27T15:58:11.171Z,4.59
2022-11-27T16:00:37.670Z,4.41
2022-11-27T16:03:04.186Z,4.60
2022-11-27T16:05:30.627Z,4.56
2022-11-27T16:07:57.609Z,4.68
2022-11-27T16:10:24.294Z,4.72
2022-11-27T16:12:54.857Z,4.71
2022-11-27T16:15:23.203Z,4.75
2022-11-27T16:17:50.560Z,4.60
2022-11-27T16:20:17.160Z,4.48
2022-11-27T16:22:43.567Z,4.46
2022-11-27T16:25:09.965Z,4.45
2022-11-27T16:27:36.514Z,4.50
2022-11-27T16:30:03.395Z,4.34
2022-11-27T16:32:30.066Z,4.35
2022-11-27T16:34:56.969Z,4.30
2022-11-27T16:37:23.626Z,4.45
2022-11-27T16:39:50.086Z,4.52
2022-11-27T16:42:16.499Z,4.42
2022-11-27T16:44:44.298Z,4.75
2022-11-27T16:47:11.057Z,4.68
2022-11-27T16:49:37.519Z,4.44
2022-11-27T16:52:04.166Z,4.41
2022-11-27T16:54:30.657Z,4.43
2022-11-27T16:56:57.085Z,4.40
2022-11-27T16:59:23.578Z,4.43
2022-11-27T17:01:50.013Z,4.64
2022-11-27T17:04:18.773Z,4.69
2022-11-27T17:06:46.337Z,4.74
2022-11-27T17:09:13.205Z,4.89
2022-11-27T17:11:43.553Z,4.98
2022-11-27T17:14:11.037Z,4.78
2022-11-27T17:16:41.105Z,4.82
2022-11-27T17:19:08.981Z,4.71
2022-11-27T17:21:35.469Z,4.67
2022-11-27T17:24:13.180Z,4.76
2022-11-27T17:26:43.107Z,4.64
2022-11-27T17:29:15.188Z,4.75
2022-11-27T17:31:42.294Z,4.91
2022-11-27T17:34:11.423Z,4.67
2022-11-27T17:36:38.689Z,4.53
2022-11-27T17:39:06.322Z,4.47
2022-11-27T17:41:33.355Z,4.43
2022-11-27T17:44:00.357Z,4.59
2022-11-27T17:46:28.853Z,4.74
2022-11-27T17:48:58.953Z,4.64
2022-11-27T17:51:26.654Z,4.61
2022-11-27T17:53:53.166Z,4.72
2022-11-27T17:56:20.589Z,4.63
2022-11-27T17:58:47.237Z,4.59
2022-11-27T18:01:17.338Z,4.71
2022-11-27T18:03:45.990Z,4.49
2022-11-27T18:06:13.186Z,4.58
2022-11-27T18:08:40.403Z,4.53
2022-11-27T18:11:09.240Z,4.52
2022-11-27T18:13:36.215Z,4.60
2022-11-27T18:16:10.122Z,4.66
2022-11-27T18:18:37.686Z,4.79
2022-11-27T18:21:19.164Z,4.79
2022-11-27T18:24:20.887Z,4.62
2022-11-27T18:27:00.490Z,4.85
2022-11-27T18:29:21.694Z,4.65
2022-11-27T18:31:49.293Z,4.52
2022-11-27T18:34:15.745Z,4.60
2022-11-27T18:36:42.286Z,4.46
2022-11-27T18:39:09.175Z,4.61
2022-11-27T18:41:36.533Z,4.48
2022-11-27T18:44:04.068Z,4.79
2022-11-27T18:46:30.670Z,4.82
2022-11-27T18:48:57.179Z,4.67
2022-11-27T18:51:25.376Z,4.59
2022-11-27T18:53:52.572Z,4.62
2022-11-27T18:56:22.330Z,4.53
2022-11-27T18:58:49.819Z,4.62
2022-11-27T19:01:22.310Z,4.47
2022-11-27T19:03:48.840Z,4.64
2022-11-27T19:06:16.909Z,4.62
2022-11-27T19:08:44.411Z,4.63
2022-11-27T19:11:13.878Z,4.73
2022-11-27T19:13:41.600Z,4.78
2022-11-27T19:16:15.947Z,4.75
2022-11-27T19:18:42.555Z,4.84
2022-11-27T19:21:16.363Z,4.70
2022-11-27T19:23:43.603Z,4.67
2022-11-27T19:26:13.194Z,4.65
2022-11-27T19:28:40.725Z,4.75
2022-11-27T19:31:10.931Z,4.84
2022-11-27T19:33:38.093Z,4.77
2022-11-27T19:36:08.533Z,4.80
2022-11-27T19:38:36.341Z,5.02
2022-11-27T19:41:04.233Z,4.81
2022-11-27T19:43:30.632Z,4.81
2022-11-27T19:45:57.234Z,4.70
2022-11-27T19:48:23.856Z,4.57
2022-11-27T19:50:51.668Z,4.64
2022-11-27T19:53:18.368Z,4.79
2022-11-27T19:55:44.843Z,4.71
2022-11-27T19:58:12.452Z,4.59
2022-11-27T20:00:39.247Z,4.58
2022-11-27T20:03:05.782Z,4.63
2022-11-27T20:05:32.171Z,4.70
2022-11-27T20:07:59.520Z,4.70
2022-11-27T20:10:26.340Z,4.51
2022-11-27T20:12:52.743Z,4.70
2022-11-27T20:15:19.598Z,4.66
2022-11-27T20:17:46.023Z,4.71
2022-11-27T20:20:13.346Z,4.97
2022-11-27T20:22:40.121Z,4.71
2022-11-27T20:25:22.185Z,4.76
2022-11-27T20:27:48.688Z,4.72
2022-11-27T20:30:15.246Z,4.81
2022-11-27T20:32:41.646Z,4.68
2022-11-27T20:35:08.386Z,4.73
2022-11-27T20:37:34.861Z,4.82
2022-11-27T20:40:01.318Z,4.92
2022-11-27T20:42:27.772Z,4.99
2022-11-27T20:44:54.168Z,4.88
2022-11-27T20:47:20.629Z,4.95
2022-11-27T20:49:47.102Z,4.99
2022-11-27T20:52:14.508Z,5.18
2022-11-27T20:54:40.996Z,5.06
2022-11-27T20:57:08.958Z,4.86
2022-11-27T20:59:35.438Z,4.96
2022-11-27T21:02:02.737Z,4.95
2022-11-27T21:04:29.290Z,4.85
2022-11-27T21:06:58.417Z,4.97
2022-11-27T21:09:24.916Z,4.96
2022-11-27T21:11:51.456Z,4.85
2022-11-27T21:14:18.467Z,4.95
2022-11-27T21:16:48.682Z,4.95
2022-11-27T21:19:18.427Z,5.04
2022-11-27T21:21:46.880Z,4.80
2022-11-27T21:24:13.709Z,4.84
2022-11-27T21:26:41.417Z,4.92
2022-11-27T21:29:08.999Z,4.95
2022-11-27T21:31:37.791Z,4.81
2022-11-27T21:34:07.337Z,4.96
2022-11-27T21:36:36.267Z,4.97
2022-11-27T21:39:06.338Z,4.79
2022-11-27T21:41:33.137Z,4.92
2022-11-27T21:44:01.698Z,4.98
2022-11-27T21:46:29.724Z,5.00
2022-11-27T21:48:58.569Z,4.85
2022-11-27T21:51:26.638Z,4.95
2022-11-27T21:53:55.187Z,5.07
2022-11-27T21:56:23.455Z,5.04
2022-11-27T21:58:50.250Z,4.88
2022-11-27T22:01:19.990Z,4.94
2022-11-27T22:03:47.378Z,4.96
2022-11-27T22:06:15.459Z,5.07
2022-11-27T22:08:43.862Z,4.99
2022-11-27T22:11:14.125Z,5.22
2022-11-27T22:13:41.518Z,5.17
2022-11-27T22:16:10.814Z,5.26
2022-11-27T22:18:37.551Z,5.22
2022-11-27T22:21:05.538Z,5.13
2022-11-27T22:23:32.023Z,5.15
2022-11-27T22:26:05.875Z,5.02
2022-11-27T22:28:32.483Z,5.01
2022-11-27T22:30:58.937Z,4.96
2022-11-27T22:33:25.651Z,4.86
2022-11-27T22:35:52.068Z,5.01
2022-11-27T22:38:18.486Z,5.01
2022-11-27T22:40:45.058Z,5.08
2022-11-27T22:43:11.457Z,4.93
2022-11-27T22:45:39.312Z,4.88
2022-11-27T22:48:06.147Z,4.98
2022-11-27T22:50:32.717Z,5.13
2022-11-27T22:52:59.099Z,5.10
2022-11-27T22:55:25.614Z,4.89
2022-11-27T22:57:52.067Z,4.94
2022-11-27T23:00:18.665Z,4.93
2022-11-27T23:02:45.110Z,4.88
2022-11-27T23:05:11.590Z,4.89
2022-11-27T23:07:38.075Z,5.03
2022-11-27T23:10:04.920Z,5.00
2022-11-27T23:12:31.325Z,4.87
2022-11-27T23:14:57.714Z,4.84
2022-11-27T23:17:24.100Z,4.86
2022-11-27T23:19:50.494Z,4.87
2022-11-27T23:22:16.950Z,4.95
2022-11-27T23:24:43.503Z,5.21
2022-11-27T23:27:10.110Z,5.03
2022-11-27T23:29:36.505Z,4.98
2022-11-27T23:32:03.003Z,4.96
2022-11-27T23:34:29.470Z,5.23
2022-11-27T23:36:55.841Z,5.15
2022-11-27T23:39:22.282Z,4.95
2022-11-27T23:41:49.449Z,4.96
2022-11-27T23:44:16.005Z,5.13
2022-11-27T23:46:42.459Z,5.09
2022-11-27T23:49:08.877Z,5.16
2022-11-27T23:51:35.371Z,5.21
2022-11-27T23:54:01.862Z,5.10
2022-11-27T23:56:30.738Z,5.07
2022-11-27T23:58:57.554Z,4.98
